Time;durP1;ratioP1;P1;durP2;ratioP2;P2;SDS_P1;SDS_P2;PMS_P1;PMS_P2;Temp;Humidity;BMP_temperature;BMP_pressure;BME280_temperature;BME280_humidity;BME280_pressure;Samples;Min_cycle;Max_cycle;Signal;HPM_P1;HPM_P2
2022/06/08 04:22:33;;;;;;;8.13;5.32;;;;;;;11.62;100.00;99812.72;5088828;28;20163;-75
2022/06/08 04:25:01;;;;;;;6.60;4.60;;;;;;;11.65;100.00;99812.31;5087846;28;20074;-76
2022/06/08 04:27:27;;;;;;;5.53;3.60;;;;;;;11.69;100.00;99808.25;5087718;28;20127;-76
2022/06/08 04:29:54;;;;;;;6.25;3.90;;;;;;;11.74;100.00;99807.69;5088235;28;20524;-75
2022/06/08 04:32:20;;;;;;;7.25;4.70;;;;;;;11.76;100.00;99807.50;5070508;28;20098;-75
2022/06/08 04:34:47;;;;;;;6.07;4.18;;;;;;;11.81;100.00;99805.94;5087476;28;20028;-75
2022/06/08 04:37:14;;;;;;;4.53;3.75;;;;;;;11.84;100.00;99812.72;5087536;28;20036;-75
2022/06/08 04:39:43;;;;;;;9.90;3.65;;;;;;;11.83;100.00;99819.91;5087442;28;20054;-75
2022/06/08 04:42:09;;;;;;;4.28;3.50;;;;;;;11.87;100.00;99823.84;5088507;28;20504;-75
2022/06/08 04:44:39;;;;;;;4.38;2.90;;;;;;;11.87;100.00;99823.03;5087401;28;20385;-75
2022/06/08 04:47:08;;;;;;;6.18;4.03;;;;;;;11.94;100.00;99822.06;5087254;28;20056;-75
2022/06/08 04:49:35;;;;;;;7.50;4.25;;;;;;;11.97;100.00;99818.19;5087436;28;20120;-75
2022/06/08 04:52:04;;;;;;;5.30;4.00;;;;;;;11.99;100.00;99821.47;5087057;28;20044;-75
2022/06/08 04:54:31;;;;;;;5.55;2.83;;;;;;;11.95;100.00;99809.53;5087251;28;20032;-75
2022/06/08 04:56:56;;;;;;;6.78;3.00;;;;;;;11.99;100.00;99816.13;5087120;28;20024;-75
2022/06/08 04:59:22;;;;;;;5.07;2.97;;;;;;;12.05;100.00;99826.03;5087252;28;20358;-75
2022/06/08 05:01:56;;;;;;;6.10;3.15;;;;;;;12.09;100.00;99813.16;5086776;28;20093;-75
2022/06/08 05:04:22;;;;;;;6.72;3.58;;;;;;;12.15;100.00;99817.72;5088470;28;20447;-75
2022/06/08 05:06:50;;;;;;;5.28;3.40;;;;;;;12.28;100.00;99812.47;5087158;28;20051;-75
2022/06/08 05:09:16;;;;;;;7.70;5.32;;;;;;;12.34;100.00;99810.88;5087084;28;20040;-75
2022/06/08 05:11:45;;;;;;;5.13;3.88;;;;;;;12.42;100.00;99808.03;5086803;28;20115;-77
2022/06/08 05:14:10;;;;;;;7.32;3.78;;;;;;;12.52;100.00;99805.00;5088632;28;20114;-77
2022/06/08 05:16:36;;;;;;;5.82;3.70;;;;;;;12.67;100.00;99811.91;5087023;28;20028;-77
2022/06/08 05:19:03;;;;;;;3.40;2.90;;;;;;;12.79;100.00;99804.16;5086998;28;20058;-76
2022/06/08 05:21:29;;;;;;;4.70;2.30;;;;;;;12.85;100.00;99803.38;5086465;28;20124;-77
2022/06/08 05:23:55;;;;;;;4.82;2.90;;;;;;;12.96;100.00;99807.31;5086687;28;20050;-76
2022/06/08 05:26:49;;;;;;;3.20;2.58;;;;;;;13.02;100.00;99807.31;5089900;28;20501;-75
2022/06/08 05:29:15;;;;;;;4.07;2.53;;;;;;;13.10;100.00;99809.00;5069780;28;20048;-76
2022/06/08 05:31:41;;;;;;;5.13;2.70;;;;;;;13.14;100.00;99794.22;5084531;28;20286;-75
2022/06/08 05:34:06;;;;;;;5.28;3.33;;;;;;;13.23;100.00;99798.38;5073618;28;20082;-72
2022/06/08 05:36:33;;;;;;;3.38;2.50;;;;;;;13.30;100.00;99791.22;5072775;28;20039;-73
2022/06/08 05:39:03;;;;;;;4.10;2.67;;;;;;;13.36;100.00;99797.59;5073071;28;20067;-73
2022/06/08 05:41:34;;;;;;;3.83;2.50;;;;;;;13.45;100.00;99804.41;5056671;28;20117;-73
2022/06/08 05:44:00;;;;;;;3.65;2.95;;;;;;;13.53;100.00;99784.66;5072686;28;20032;-73
2022/06/08 05:46:26;;;;;;;5.65;2.70;;;;;;;13.62;100.00;99785.28;5072567;28;20029;-73
2022/06/08 05:48:57;;;;;;;3.97;2.45;;;;;;;13.70;100.00;99788.63;5072602;28;20036;-74
2022/06/08 05:51:23;;;;;;;5.60;2.28;;;;;;;13.80;100.00;99782.84;5072670;28;20043;-73
2022/06/08 05:53:49;;;;;;;3.17;1.92;;;;;;;13.96;100.00;99789.66;5072354;28;20032;-73
2022/06/08 05:56:15;;;;;;;5.50;2.30;;;;;;;14.04;100.00;99779.56;5072462;28;20047;-73
2022/06/08 05:58:44;;;;;;;4.75;2.05;;;;;;;14.15;97.91;99780.78;5056325;28;20056;-75
2022/06/08 06:01:09;;;;;;;4.35;2.42;;;;;;;14.33;96.73;99789.00;5072317;28;20063;-74
2022/06/08 06:03:36;;;;;;;4.75;2.03;;;;;;;14.45;96.10;99788.34;5071997;28;20116;-74
2022/06/08 06:06:02;;;;;;;6.80;2.47;;;;;;;14.52;96.77;99770.44;5073483;28;20067;-73
2022/06/08 06:08:28;;;;;;;4.45;2.22;;;;;;;14.64;96.91;99774.94;5072362;28;20040;-74
2022/06/08 06:10:57;;;;;;;5.03;2.63;;;;;;;14.68;95.54;99775.34;5072310;28;20033;-73
2022/06/08 06:13:43;;;;;;;3.95;2.22;;;;;;;14.81;94.25;99780.66;5072978;28;20048;-75
2022/06/08 06:16:14;;;;;;;3.50;2.28;;;;;;;14.97;93.47;99781.22;5071874;28;20087;-76
2022/06/08 06:18:40;;;;;;;4.90;2.38;;;;;;;15.02;91.88;99759.94;5072102;28;20028;-76
2022/06/08 06:21:28;;;;;;;4.43;2.72;;;;;;;15.09;93.91;99772.28;5071676;28;20377;-76
2022/06/08 06:24:20;;;;;;;8.63;2.25;;;;;;;15.22;93.45;99765.22;5072981;28;20048;-75
2022/06/08 06:26:57;;;;;;;3.67;2.30;;;;;;;15.29;94.16;99766.00;5071856;28;20032;-76
2022/06/08 06:29:43;;;;;;;6.07;2.60;;;;;;;15.37;94.96;99761.19;5069035;28;20055;-76
2022/06/08 06:32:36;;;;;;;3.55;2.13;;;;;;;15.48;94.20;99760.50;5071563;28;20063;-76
2022/06/08 06:35:05;;;;;;;4.13;2.45;;;;;;;15.57;89.40;99753.00;5073184;28;20032;-77
2022/06/08 06:37:31;;;;;;;4.07;2.20;;;;;;;15.70;87.07;99757.47;5072406;28;20039;-75
2022/06/08 06:39:58;;;;;;;3.90;2.10;;;;;;;15.78;87.62;99756.38;5072337;28;20075;-77
2022/06/08 06:42:31;;;;;;;3.70;1.95;;;;;;;15.95;85.87;99752.13;5071903;28;20048;-76
2022/06/08 06:45:24;;;;;;;4.28;2.30;;;;;;;16.04;86.88;99747.28;5071785;28;20071;-75
2022/06/08 06:47:58;;;;;;;5.68;2.40;;;;;;;16.16;85.07;99745.50;5071538;28;20043;-76
2022/06/08 06:50:25;;;;;;;4.93;2.17;;;;;;;16.26;86.50;99745.84;5071407;28;20098;-76
2022/06/08 06:52:52;;;;;;;4.60;1.80;;;;;;;16.49;82.79;99740.59;5071262;28;20037;-76
2022/06/08 06:55:24;;;;;;;4.05;1.60;;;;;;;16.57;82.11;99730.63;5054989;28;20513;-76
2022/06/08 06:57:53;;;;;;;5.20;2.20;;;;;;;16.86;79.98;99734.44;5071294;28;20110;-76
2022/06/08 07:00:24;;;;;;;4.13;1.77;;;;;;;16.92;77.52;99725.44;5071029;28;20504;-76
2022/06/08 07:02:50;;;;;;;4.10;1.83;;;;;;;17.02;76.93;99715.81;5073274;28;20036;-77
2022/06/08 07:05:23;;;;;;;4.82;2.00;;;;;;;17.13;77.75;99713.38;5072152;28;20079;-77
2022/06/08 07:07:49;;;;;;;2.60;1.85;;;;;;;17.38;76.98;99708.66;5071195;28;20036;-77
2022/06/08 07:10:15;;;;;;;4.65;2.10;;;;;;;17.40;78.71;99697.63;5074805;28;20028;-77
2022/06/08 07:12:42;;;;;;;4.13;2.08;;;;;;;17.54;78.05;99708.00;5055632;28;20077;-76
2022/06/08 07:15:10;;;;;;;4.32;1.90;;;;;;;17.58;78.57;99701.06;5072135;28;20380;-76
2022/06/08 07:17:36;;;;;;;5.43;2.38;;;;;;;17.75;75.89;99703.94;5071394;28;20167;-76
2022/06/08 07:20:04;;;;;;;4.28;1.83;;;;;;;18.10;72.07;99705.81;5071141;28;20458;-76
2022/06/08 07:22:32;;;;;;;5.90;1.75;;;;;;;18.08;70.66;99689.06;5070493;28;20032;-76
2022/06/08 07:24:57;;;;;;;5.65;2.13;;;;;;;18.20;69.47;99697.97;5072001;28;20056;-75
2022/06/08 07:27:23;;;;;;;7.43;1.95;;;;;;;18.30;70.37;99700.06;5071916;28;20374;-77
2022/06/08 07:29:50;;;;;;;4.78;1.73;;;;;;;18.44;70.63;99696.03;5072855;28;20044;-78
2022/06/08 07:32:15;;;;;;;4.47;1.70;;;;;;;18.54;71.31;99703.53;5055625;28;20428;-77
2022/06/08 07:34:41;;;;;;;3.35;1.90;;;;;;;18.70;68.24;99684.72;5073709;28;20052;-78
2022/06/08 07:37:06;;;;;;;3.78;1.95;;;;;;;18.75;69.50;99683.22;5072394;28;20046;-79
2022/06/08 07:39:32;;;;;;;6.15;2.30;;;;;;;18.86;70.04;99693.97;5073035;28;20405;-79
2022/06/08 07:41:58;;;;;;;5.57;2.00;;;;;;;19.03;69.61;99687.78;5073020;28;20493;-78
2022/06/08 07:44:23;;;;;;;5.07;1.90;;;;;;;19.09;70.45;99684.94;5072728;28;20032;-79
2022/06/08 07:46:49;;;;;;;4.15;2.00;;;;;;;19.21;69.95;99684.88;5073140;28;20036;-77
2022/06/08 07:49:36;;;;;;;3.78;1.90;;;;;;;19.38;67.89;99679.50;5071217;28;20029;-79
2022/06/08 07:52:15;;;;;;;4.57;1.92;;;;;;;19.63;67.22;99685.34;5072397;28;20482;-79
2022/06/08 07:54:42;;;;;;;4.43;1.55;;;;;;;19.86;64.33;99672.72;5072596;28;20058;-79
2022/06/08 07:57:13;;;;;;;7.65;2.30;;;;;;;20.03;64.65;99670.81;5073365;28;20101;-81
2022/06/08 07:59:39;;;;;;;6.70;2.00;;;;;;;20.33;62.48;99675.81;5073703;28;20052;-79
2022/06/08 08:02:07;;;;;;;3.33;1.70;;;;;;;20.49;61.38;99676.88;5072605;28;20090;-80
2022/06/08 08:04:34;;;;;;;3.05;1.88;;;;;;;20.71;59.22;99668.72;5072860;28;20118;-82
2022/06/08 08:07:00;;;;;;;4.53;1.60;;;;;;;20.80;61.85;99664.47;5071731;28;20543;-77
2022/06/08 08:09:25;;;;;;;4.70;1.48;;;;;;;20.77;60.21;99662.28;5071194;28;20072;-79
2022/06/08 08:11:53;;;;;;;3.78;1.40;;;;;;;20.78;59.81;99659.31;5072361;28;20040;-79
2022/06/08 08:14:22;;;;;;;6.90;1.48;;;;;;;20.78;58.21;99651.22;5055732;28;20054;-79
2022/06/08 08:16:48;;;;;;;4.22;1.55;;;;;;;20.90;58.30;99661.09;5069763;28;20089;-80
2022/06/08 08:19:20;;;;;;;3.60;1.90;;;;;;;21.10;58.46;99664.00;5070544;28;20041;-79
2022/06/08 08:21:47;;;;;;;7.80;1.95;;;;;;;21.03;57.95;99652.56;5054175;28;20040;-81
2022/06/08 08:24:13;;;;;;;5.15;1.58;;;;;;;21.06;57.66;99644.75;5072442;28;20085;-80
2022/06/08 08:26:39;;;;;;;6.95;1.55;;;;;;;21.33;58.50;99644.75;5072321;28;20487;-80
2022/06/08 08:29:05;;;;;;;4.13;1.73;;;;;;;21.43;55.99;99635.06;5072197;28;20037;-79
2022/06/08 08:31:31;;;;;;;4.32;1.67;;;;;;;21.47;55.12;99639.69;5071636;28;20118;-79
2022/06/08 08:33:57;;;;;;;3.45;1.50;;;;;;;21.58;53.94;99635.16;5071327;28;20531;-80
2022/06/08 08:36:23;;;;;;;4.97;1.90;;;;;;;21.43;55.35;99629.63;5071597;28;20037;-77
2022/06/08 08:38:49;;;;;;;5.70;1.90;;;;;;;21.69;54.39;99634.16;5071863;28;20040;-78
2022/06/08 08:44:32;;;;;;;4.88;1.90;;;;;;;21.81;56.89;99615.81;5072004;28;20029;-80
2022/06/08 08:47:16;;;;;;;4.10;1.80;;;;;;;21.88;53.76;99616.38;5071211;28;20031;-77
2022/06/08 08:49:51;;;;;;;5.05;1.80;;;;;;;22.23;53.26;99608.72;5071832;28;20063;-77
2022/06/08 08:52:38;;;;;;;6.40;1.50;;;;;;;22.51;52.21;99596.63;5071306;28;20086;-78
2022/06/08 08:55:17;;;;;;;3.42;1.77;;;;;;;22.50;50.18;99597.72;5071594;28;20028;-75
2022/06/08 08:57:59;;;;;;;4.68;1.83;;;;;;;22.55;52.08;99590.38;5071986;28;20076;-76
2022/06/08 09:00:37;;;;;;;6.38;1.83;;;;;;;22.52;47.87;99585.50;5053937;28;20102;-77
2022/06/08 09:03:17;;;;;;;2.40;1.40;;;;;;;22.77;49.04;99587.44;5071372;28;20035;-77
2022/06/08 09:05:47;;;;;;;5.13;1.40;;;;;;;22.91;49.82;99577.72;5069655;28;20773;-79
2022/06/08 09:08:15;;;;;;;3.20;1.60;;;;;;;23.21;50.76;99584.22;5071689;28;20147;-77
2022/06/08 09:10:42;;;;;;;8.85;1.80;;;;;;;23.27;51.30;99586.66;5074611;28;20458;-76
2022/06/08 09:13:21;;;;;;;5.40;2.17;;;;;;;23.50;48.27;99579.88;5056639;28;20036;-80
2022/06/08 09:15:56;;;;;;;2.75;1.58;;;;;;;23.67;50.07;99579.63;5074608;28;20041;-77
2022/06/08 09:18:39;;;;;;;4.72;1.70;;;;;;;23.58;45.90;99575.78;5074599;28;20047;-78
2022/06/08 09:21:37;;;;;;;7.47;1.48;;;;;;;23.32;47.66;99577.72;5074158;28;20047;-75
2022/06/08 09:24:28;;;;;;;6.07;1.98;;;;;;;23.36;47.83;99567.13;5072973;28;20048;-77
2022/06/08 09:26:57;;;;;;;4.13;1.75;;;;;;;23.29;46.91;99565.50;5073046;28;20134;-79
2022/06/08 09:29:26;;;;;;;7.32;1.88;;;;;;;23.53;48.93;99568.44;5074327;28;20066;-77
2022/06/08 09:31:55;;;;;;;3.70;1.50;;;;;;;23.96;46.23;99560.75;5072773;28;20544;-77
2022/06/08 09:34:33;;;;;;;2.85;1.60;;;;;;;23.93;45.29;99550.44;5073023;28;20036;-75
2022/06/08 09:37:11;;;;;;;6.07;1.67;;;;;;;23.90;45.17;99550.97;5072788;28;20125;-76
2022/06/08 09:39:38;;;;;;;;;;;;;;;24.11;48.76;99543.53;5074274;28;20047;-77
2022/06/08 09:42:22;;;;;;;2.40;1.70;;;;;;;23.69;47.21;99549.44;5073776;28;20022;-77
2022/06/08 09:45:13;;;;;;;2.63;1.55;;;;;;;24.02;45.28;99554.19;5074357;28;20091;-77
2022/06/08 09:53:40;;;;;;;3.38;1.63;;;;;;;24.56;46.72;99536.25;5073342;28;20097;-77
2022/06/08 09:56:16;;;;;;;5.05;1.30;;;;;;;24.51;49.07;99539.00;5068524;28;20036;-76
2022/06/08 09:59:09;;;;;;;3.45;1.70;;;;;;;24.90;46.10;99531.63;5077659;28;20401;-78
2022/06/08 10:01:49;;;;;;;3.92;1.42;;;;;;;25.22;44.25;99530.28;5078472;28;20039;-79
2022/06/08 10:04:22;;;;;;;5.07;1.60;;;;;;;24.90;45.73;99525.38;5075885;28;20032;-78
2022/06/08 10:07:11;;;;;;;4.50;1.50;;;;;;;25.10;45.39;99514.34;5081582;28;20028;-81
2022/06/08 10:10:06;;;;;;;6.82;1.60;;;;;;;25.53;44.98;99517.19;5076077;28;20060;-78
2022/06/08 10:12:59;;;;;;;4.75;1.92;;;;;;;25.85;44.12;99513.03;5077973;28;20389;-78
2022/06/08 10:15:30;;;;;;;4.95;1.70;;;;;;;26.48;42.67;99504.56;5078105;28;20047;-77
2022/06/08 10:18:19;;;;;;;3.70;1.67;;;;;;;26.56;42.31;99495.69;5077523;28;20500;-78
2022/06/08 10:21:03;;;;;;;3.20;1.25;;;;;;;26.34;41.48;99498.16;5079355;28;20440;-78
2022/06/08 10:23:55;;;;;;;5.57;1.42;;;;;;;26.22;41.94;99499.44;5081110;28;20074;-78
2022/06/08 10:26:29;;;;;;;5.47;1.83;;;;;;;26.17;43.01;99510.44;5076646;28;20043;-78
2022/06/08 10:29:04;;;;;;;3.88;1.50;;;;;;;25.59;42.33;99493.41;5073777;28;20404;-78
2022/06/08 10:31:41;;;;;;;4.80;1.70;;;;;;;25.60;42.98;99493.09;5100856;22;20139;-74
2022/06/08 10:34:22;;;;;;;5.38;1.65;;;;;;;25.93;40.47;99493.28;5072374;28;20625;-74
2022/06/08 10:36:53;;;;;;;4.05;1.52;;;;;;;25.81;42.23;99484.69;5073509;28;20039;-74
2022/06/08 10:39:19;;;;;;;4.00;1.30;;;;;;;25.13;42.31;99491.97;5073078;28;20032;-74
2022/06/08 10:44:51;;;;;;;4.80;1.90;;;;;;;25.97;42.05;99484.22;5093361;28;20517;-74
2022/06/08 10:47:28;;;;;;;;;;;;;;;26.31;41.02;99483.22;5093780;28;20032;-74
2022/06/08 10:49:59;;;;;;;2.80;1.27;;;;;;;26.31;39.09;99479.66;5093194;28;20003;-74
2022/06/08 10:52:28;;;;;;;3.10;1.40;;;;;;;25.66;38.70;99488.41;5092891;28;20032;-74
2022/06/08 10:55:18;;;;;;;4.95;1.10;;;;;;;25.49;40.49;99480.69;5092988;28;20386;-75
2022/06/08 10:57:50;;;;;;;5.57;1.30;;;;;;;25.06;38.73;99480.59;5093097;28;20480;-74
2022/06/08 11:00:18;;;;;;;4.13;1.25;;;;;;;25.68;40.12;99475.28;5091990;28;20089;-74
2022/06/08 11:02:54;;;;;;;2.20;1.20;;;;;;;26.05;40.25;99460.94;5092603;28;20495;-74
2022/06/08 11:05:43;;;;;;;1.83;0.90;;;;;;;26.21;37.39;99451.44;5093309;28;20036;-73
2022/06/08 11:08:09;;;;;;;5.97;1.30;;;;;;;25.82;37.11;99459.03;5092973;28;20495;-73
2022/06/08 11:10:44;;;;;;;4.37;1.17;;;;;;;25.86;36.58;99451.91;5091490;28;20039;-73
2022/06/08 11:13:32;;;;;;;2.75;1.05;;;;;;;25.63;36.60;99451.63;5091493;28;20295;-73
2022/06/08 11:16:25;;;;;;;2.08;1.08;;;;;;;25.92;36.37;99439.81;5091482;28;20036;-73
2022/06/08 11:18:54;;;;;;;4.53;1.00;;;;;;;26.19;36.20;99450.09;5092788;28;20036;-74
2022/06/08 11:21:28;;;;;;;3.88;1.00;;;;;;;26.50;33.59;99447.72;5092611;28;20039;-74
2022/06/08 11:24:30;;;;;;;2.50;1.00;;;;;;;27.15;34.57;99439.53;5091256;28;20032;-73
2022/06/08 11:27:11;;;;;;;1.75;1.13;;;;;;;28.00;34.27;99434.53;5089965;28;20405;-73
2022/06/08 11:29:48;;;;;;;2.28;1.00;;;;;;;27.96;33.37;99436.25;5092342;28;20028;-73
2022/06/08 11:32:34;;;;;;;7.07;1.33;;;;;;;28.17;34.04;99431.13;5090705;28;20032;-73
2022/06/08 11:35:22;;;;;;;4.65;1.25;;;;;;;27.98;32.48;99425.84;5091164;28;20089;-73
2022/06/08 11:38:05;;;;;;;2.67;1.10;;;;;;;27.91;32.28;99419.94;5092280;28;20027;-74
2022/06/08 11:40:34;;;;;;;2.50;1.08;;;;;;;27.47;32.71;99421.41;5092131;28;20447;-74
2022/06/08 11:43:13;;;;;;;3.60;1.20;;;;;;;27.27;36.67;99428.91;5091958;28;20035;-73
2022/06/08 11:45:56;;;;;;;4.10;1.25;;;;;;;27.72;35.19;99420.09;5090588;28;20043;-73
2022/06/08 11:48:26;;;;;;;2.80;1.13;;;;;;;28.00;36.45;99412.63;5092282;28;20468;-75
2022/06/08 11:50:54;;;;;;;2.55;1.00;;;;;;;27.84;32.57;99404.78;5091889;28;20036;-74
2022/06/08 11:53:33;;;;;;;1.50;0.80;;;;;;;27.53;31.41;99417.47;5090342;28;20048;-74
2022/06/08 11:56:17;;;;;;;2.42;1.00;;;;;;;26.91;35.29;99408.78;5092120;28;20066;-74
2022/06/08 11:58:52;;;;;;;4.50;1.20;;;;;;;26.63;33.21;99402.47;5092044;28;20040;-74
2022/06/08 12:01:22;;;;;;;4.53;1.25;;;;;;;26.42;35.37;99402.00;5090701;28;20039;-74
2022/06/08 12:04:06;;;;;;;3.65;1.17;;;;;;;26.70;37.25;99402.88;5092161;28;20378;-74
2022/06/08 12:06:36;;;;;;;2.45;0.85;;;;;;;26.35;34.11;99399.63;5090736;28;20043;-74
2022/06/08 12:09:14;;;;;;;1.50;0.90;;;;;;;26.28;32.80;99390.16;5091987;28;20040;-73
2022/06/08 12:11:45;;;;;;;4.93;1.23;;;;;;;26.13;33.62;99397.50;5090705;28;20378;-73
2022/06/08 12:14:34;;;;;;;7.10;1.38;;;;;;;25.84;33.31;99388.66;5090817;28;20040;-71
2022/06/08 12:17:08;;;;;;;4.97;1.10;;;;;;;25.59;33.63;99396.06;5091867;28;20404;-73
2022/06/08 12:19:53;;;;;;;3.47;1.10;;;;;;;25.37;35.05;99399.34;5091991;28;20051;-73
2022/06/08 12:22:24;;;;;;;4.30;1.23;;;;;;;25.30;35.65;99400.78;5091367;28;20043;-72
2022/06/08 12:25:09;;;;;;;3.05;1.00;;;;;;;25.10;36.01;99393.63;5090450;28;20436;-73
2022/06/08 12:27:46;;;;;;;2.35;1.08;;;;;;;24.97;35.75;99383.41;5091763;28;20034;-74
2022/06/08 12:30:29;;;;;;;5.97;1.25;;;;;;;25.02;35.87;99396.97;5091815;28;20043;-73
2022/06/08 12:32:55;;;;;;;5.65;1.20;;;;;;;24.77;36.45;99390.69;5091574;28;20040;-73
2022/06/08 12:35:38;;;;;;;3.17;1.08;;;;;;;24.70;36.48;99390.19;5090815;28;20032;-73
2022/06/08 12:38:30;;;;;;;4.00;1.25;;;;;;;24.41;37.29;99392.91;5091672;28;20480;-74
2022/06/08 12:41:24;;;;;;;4.80;1.63;;;;;;;24.42;36.05;99399.19;5088472;28;20112;-73
2022/06/08 12:44:03;;;;;;;2.75;1.00;;;;;;;24.24;38.84;99387.84;5083521;28;20159;-74
2022/06/08 12:46:34;;;;;;;4.80;1.23;;;;;;;24.25;38.16;99388.66;5095837;28;20580;-72
2022/06/08 12:49:21;;;;;;;3.47;0.90;;;;;;;24.18;37.99;99393.59;5095706;28;20027;-73
2022/06/08 12:51:58;;;;;;;2.95;1.02;;;;;;;24.07;36.03;99388.25;5093896;28;20465;-74
2022/06/08 12:54:27;;;;;;;2.75;0.85;;;;;;;23.91;36.05;99389.44;5095646;28;20513;-74
2022/06/08 12:56:56;;;;;;;3.30;0.90;;;;;;;23.96;35.79;99383.97;5095389;28;20137;-74
2022/06/08 12:59:23;;;;;;;4.00;1.17;;;;;;;23.96;36.26;99386.69;5095415;28;20070;-78
2022/06/08 13:01:48;;;;;;;2.10;1.10;;;;;;;23.93;36.36;99379.09;5097827;28;20028;-80
2022/06/08 13:04:20;;;;;;;3.20;0.98;;;;;;;23.86;36.40;99384.03;5097365;28;20107;-79
2022/06/08 13:06:46;;;;;;;4.10;0.80;;;;;;;23.89;36.42;99371.78;5097968;28;20424;-78
2022/06/08 13:09:18;;;;;;;2.85;1.00;;;;;;;23.86;38.17;99378.59;5098486;28;20032;-78
2022/06/08 13:11:45;;;;;;;5.53;1.00;;;;;;;23.80;38.01;99369.66;5110512;28;20032;-79
2022/06/08 13:14:14;;;;;;;;;;;;;;;23.73;38.59;99380.00;5105485;28;20031;-78
2022/06/08 13:16:40;;;;;;;4.43;1.27;;;;;;;23.76;39.24;99373.22;5097312;28;19919;-79
2022/06/08 13:19:06;;;;;;;2.72;1.00;;;;;;;23.82;38.70;99381.06;5097097;28;20032;-79
2022/06/08 13:21:31;;;;;;;3.08;1.17;;;;;;;23.84;39.17;99383.50;5096588;28;20028;-80
2022/06/08 13:23:57;;;;;;;4.43;1.33;;;;;;;23.77;39.21;99372.94;5097147;28;20040;-79
2022/06/08 13:26:27;;;;;;;3.88;1.08;;;;;;;23.79;40.22;99372.66;5079972;28;20412;-78
2022/06/08 13:28:53;;;;;;;5.20;1.30;;;;;;;23.74;39.67;99378.13;5098050;28;20130;-79
2022/06/08 13:31:23;;;;;;;3.80;0.90;;;;;;;23.68;39.69;99384.69;5096775;28;20059;-79
2022/06/08 13:33:56;;;;;;;2.70;1.15;;;;;;;23.53;39.86;99383.63;5097864;28;20040;-79
2022/06/08 13:36:30;;;;;;;4.53;1.17;;;;;;;23.49;40.89;99381.75;5100322;28;20381;-78
2022/06/08 13:39:01;;;;;;;3.03;1.08;;;;;;;23.58;42.34;99387.41;5099257;28;20040;-78
2022/06/08 13:41:27;;;;;;;3.13;1.02;;;;;;;23.52;43.25;99390.16;5103060;28;20039;-79
2022/06/08 13:43:52;;;;;;;6.85;1.63;;;;;;;23.32;44.71;99395.69;5102247;28;20113;-80
2022/06/08 13:46:23;;;;;;;3.38;1.45;;;;;;;23.27;44.41;99406.56;5100808;28;20057;-79
2022/06/08 13:48:51;;;;;;;3.75;1.30;;;;;;;22.55;45.87;99407.75;5109723;28;20036;-79
2022/06/08 13:51:16;;;;;;;3.05;1.30;;;;;;;22.33;46.29;99414.25;5100744;28;20035;-80
2022/06/08 13:53:44;;;;;;;5.82;1.20;;;;;;;22.43;47.04;99414.28;5096625;28;20149;-79
2022/06/08 13:56:11;;;;;;;;;;;;;;;22.39;48.04;99415.91;5096740;28;20051;-80
2022/06/08 13:58:37;;;;;;;7.78;1.60;;;;;;;22.20;49.39;99412.09;5098149;28;20022;-80
2022/06/08 14:01:18;;;;;;;4.40;1.98;;;;;;;22.18;47.29;99428.63;5099289;28;20067;-79
2022/06/08 14:03:45;;;;;;;3.47;1.42;;;;;;;22.08;49.46;99425.03;5096650;28;20119;-79
2022/06/08 14:14:31;;;;;;;3.95;1.52;;;;;;;21.03;56.17;99460.34;5081652;28;20044;-79
2022/06/08 14:17:00;;;;;;;5.13;1.70;;;;;;;20.86;58.37;99455.91;5080328;28;20082;-80
2022/06/08 14:19:37;;;;;;;6.20;1.42;;;;;;;20.89;59.33;99467.28;5096652;28;20119;-80
2022/06/08 14:22:04;;;;;;;4.13;1.52;;;;;;;20.60;61.43;99470.28;5096324;28;20477;-74
2022/06/08 14:24:41;;;;;;;2.88;1.52;;;;;;;20.83;61.81;99483.47;5093974;28;20040;-74
2022/06/08 14:27:10;;;;;;;5.32;1.83;;;;;;;20.57;66.10;99503.25;5093759;28;20383;-74
2022/06/08 14:29:36;;;;;;;4.05;1.90;;;;;;;19.86;69.85;99515.97;5093583;28;20540;-73
2022/06/08 14:32:07;;;;;;;3.90;1.80;;;;;;;19.59;72.09;99522.13;5093100;28;20481;-72
2022/06/08 14:34:34;;;;;;;11.25;2.05;;;;;;;19.39;74.56;99536.13;5092433;28;20290;-73
2022/06/08 14:37:02;;;;;;;3.58;1.70;;;;;;;19.01;75.89;99536.91;5092545;28;20489;-72
2022/06/08 14:39:31;;;;;;;8.25;2.20;;;;;;;18.88;75.67;99534.53;5093746;28;20028;-73
2022/06/08 14:41:59;;;;;;;5.18;2.03;;;;;;;18.77;75.92;99541.63;5093035;28;20039;-73
2022/06/08 14:44:25;;;;;;;4.80;2.30;;;;;;;18.81;77.75;99547.34;5075278;28;20030;-72
2022/06/08 14:47:04;;;;;;;5.43;2.42;;;;;;;18.65;77.74;99559.75;5093427;28;20062;-72
2022/06/08 14:49:33;;;;;;;6.43;2.15;;;;;;;18.51;78.68;99558.38;5093373;28;20488;-73
2022/06/08 14:52:01;;;;;;;4.25;1.85;;;;;;;18.44;78.98;99561.22;5093337;28;20400;-73
2022/06/08 14:54:30;;;;;;;4.90;2.20;;;;;;;18.05;81.47;99560.19;5093107;28;20044;-74
2022/06/08 14:57:17;;;;;;;6.32;2.42;;;;;;;18.14;81.13;99564.97;5093750;28;20032;-73
2022/06/08 14:59:44;;;;;;;;;;;;;;;18.06;82.04;99565.34;5092663;28;20119;-73
2022/06/08 15:02:25;;;;;;;4.88;2.30;;;;;;;17.87;84.73;99569.25;5092071;28;19928;-73
2022/06/08 15:04:51;;;;;;;6.03;2.70;;;;;;;17.66;87.61;99572.50;5092462;28;20028;-73
2022/06/08 15:07:19;;;;;;;5.32;1.75;;;;;;;17.70;88.43;99574.50;5092808;28;20048;-72
2022/06/08 15:09:45;;;;;;;7.63;2.33;;;;;;;17.54;90.17;99580.59;5092666;28;20062;-72
2022/06/08 15:12:19;;;;;;;5.07;2.28;;;;;;;17.50;91.28;99577.56;5092365;28;20047;-73
2022/06/08 15:14:58;;;;;;;6.22;2.50;;;;;;;17.34;90.79;99575.56;5091641;28;20051;-72
2022/06/08 15:17:31;;;;;;;8.60;2.53;;;;;;;17.12;91.82;99582.56;5093169;28;20036;-72
2022/06/08 15:19:59;;;;;;;6.00;2.40;;;;;;;17.05;92.81;99588.06;5089056;28;20556;-72
2022/06/08 15:22:31;;;;;;;8.63;2.35;;;;;;;16.96;94.88;99581.38;5077886;28;20032;-72
2022/06/08 15:24:58;;;;;;;7.55;2.90;;;;;;;16.79;96.54;99584.72;5082761;28;20062;-71
2022/06/08 15:27:36;;;;;;;4.60;2.85;;;;;;;16.70;97.80;99575.34;5098902;28;20040;-72
2022/06/08 15:30:07;;;;;;;7.13;3.38;;;;;;;16.52;98.64;99578.88;5092609;28;20405;-72
2022/06/08 15:32:33;;;;;;;8.35;2.67;;;;;;;16.55;100.00;99573.03;5092320;28;20035;-73
2022/06/08 15:34:59;;;;;;;11.23;3.42;;;;;;;16.45;100.00;99566.59;5093636;28;20442;-72
2022/06/08 15:37:29;;;;;;;9.80;3.38;;;;;;;16.57;100.00;99567.44;5094545;28;20079;-72
2022/06/08 15:39:56;;;;;;;5.38;3.40;;;;;;;16.57;100.00;99569.31;5092964;28;20067;-71
2022/06/08 15:42:24;;;;;;;8.18;3.25;;;;;;;16.55;100.00;99564.97;5092422;28;20024;-72
2022/06/08 15:44:49;;;;;;;;;;;;;;;16.50;100.00;99574.78;5093027;28;20188;-72
2022/06/08 15:47:20;;;;;;;6.25;3.00;;;;;;;16.58;100.00;99562.88;5092546;28;20295;-72
2022/06/08 15:49:49;;;;;;;5.13;3.00;;;;;;;16.48;100.00;99560.72;5090894;28;20127;-72
2022/06/08 15:52:30;;;;;;;4.82;3.00;;;;;;;16.44;100.00;99554.19;5092150;28;20097;-73
2022/06/08 15:55:01;;;;;;;5.35;3.17;;;;;;;16.48;100.00;99561.56;5092730;28;20047;-73
2022/06/08 15:57:27;;;;;;;4.68;2.90;;;;;;;16.53;100.00;99552.81;5093737;28;20401;-73
2022/06/08 16:00:00;;;;;;;9.02;3.83;;;;;;;16.52;100.00;99556.56;5092111;28;20086;-73
2022/06/08 16:02:26;;;;;;;8.05;3.30;;;;;;;16.56;100.00;99557.72;5092514;28;20331;-73
2022/06/08 16:04:51;;;;;;;7.20;3.05;;;;;;;16.52;100.00;99553.88;5092736;28;20122;-73
2022/06/08 16:07:17;;;;;;;7.65;2.78;;;;;;;16.54;100.00;99547.19;5092214;28;20658;-74
2022/06/08 16:09:43;;;;;;;5.95;3.00;;;;;;;16.67;100.00;99554.25;5090996;28;20042;-74
2022/06/08 16:12:10;;;;;;;7.95;3.95;;;;;;;16.64;100.00;99548.53;5092377;28;20569;-74
2022/06/08 16:14:37;;;;;;;10.30;3.80;;;;;;;16.62;100.00;99551.44;5092312;28;20044;-74
2022/06/08 16:17:04;;;;;;;11.63;3.22;;;;;;;16.61;100.00;99543.59;5091965;28;20123;-74
2022/06/08 16:19:30;;;;;;;5.72;2.80;;;;;;;16.64;100.00;99535.09;5091968;28;20040;-73
2022/06/08 16:21:56;;;;;;;10.88;3.80;;;;;;;16.73;100.00;99533.72;5107125;28;20682;-73
2022/06/08 16:24:21;;;;;;;7.60;3.17;;;;;;;16.79;100.00;99530.13;5091943;28;20174;-73
2022/06/08 16:26:47;;;;;;;9.05;3.45;;;;;;;16.79;100.00;99530.94;5090764;28;20036;-73
2022/06/08 16:29:14;;;;;;;6.75;3.40;;;;;;;16.82;100.00;99526.94;5090659;28;20068;-73
2022/06/08 16:31:39;;;;;;;9.68;4.28;;;;;;;16.79;100.00;99535.50;5089161;23;20569;-76
2022/06/08 16:34:05;;;;;;;10.05;4.63;;;;;;;16.90;100.00;99523.94;5091190;28;20036;-77
2022/06/08 16:36:31;;;;;;;7.32;3.47;;;;;;;16.91;100.00;99525.59;5073455;28;20059;-76